Time;durP1;ratioP1;P1;durP2;ratioP2;P2;SDS_P1;SDS_P2;PMS_P1;PMS_P2;Temp;Humidity;BMP_temperature;BMP_pressure;BME280_temperature;BME280_humidity;BME280_pressure;Samples;Min_cycle;Max_cycle;Signal;HPM_P1;HPM_P2
2022/04/19 00:01:53;;;;;;;8.35;2.50;;;11.60;96.70;;;;;;5031047;28;20045;-58
2022/04/19 00:04:21;;;;;;;8.18;2.47;;;11.60;97.10;;;;;;5030810;28;21226;-59
2022/04/19 00:06:47;;;;;;;7.35;2.40;;;11.50;97.20;;;;;;5030554;28;20088;-58
2022/04/19 00:09:17;;;;;;;6.38;3.25;;;11.50;96.70;;;;;;5031172;28;20081;-59
2022/04/19 00:11:44;;;;;;;7.18;2.03;;;11.50;97.00;;;;;;5030517;28;20111;-58
2022/04/19 00:14:10;;;;;;;8.38;1.85;;;11.50;96.80;;;;;;5031660;28;20096;-58
2022/04/19 00:16:38;;;;;;;12.98;2.22;;;11.50;97.00;;;;;;5030529;28;20042;-59
2022/04/19 00:19:06;;;;;;;7.35;2.28;;;11.40;97.00;;;;;;5030784;28;20056;-58
2022/04/19 00:21:33;;;;;;;4.78;2.25;;;11.40;96.90;;;;;;5030902;28;20077;-58
2022/04/19 00:23:59;;;;;;;6.53;1.88;;;11.40;97.20;;;;;;5033430;28;20046;-58
2022/04/19 00:26:26;;;;;;;8.60;2.00;;;11.40;97.90;;;;;;5029274;28;20045;-58
2022/04/19 00:28:53;;;;;;;13.20;2.40;;;11.30;97.60;;;;;;5034637;28;20081;-58
2022/04/19 00:31:20;;;;;;;14.98;3.58;;;11.30;97.60;;;;;;4683800;28;9999881;-58
2022/04/19 00:33:47;;;;;;;5.93;2.28;;;11.30;97.50;;;;;;5031484;28;20060;-58
2022/04/19 00:36:14;;;;;;;6.63;1.70;;;11.30;97.80;;;;;;5033169;28;20089;-54
2022/04/19 00:38:41;;;;;;;6.03;2.20;;;11.20;97.90;;;;;;5027411;28;20451;-58
2022/04/19 00:41:08;;;;;;;8.05;1.95;;;11.20;97.50;;;;;;5035064;28;20048;-58
2022/04/19 00:43:35;;;;;;;8.85;2.08;;;11.20;97.60;;;;;;5034749;28;20077;-58
2022/04/19 00:46:02;;;;;;;8.63;2.17;;;11.10;97.70;;;;;;5033250;28;20073;-59
2022/04/19 00:48:29;;;;;;;11.35;3.22;;;11.10;97.80;;;;;;5033883;28;20160;-59
2022/04/19 00:50:56;;;;;;;6.95;2.17;;;11.10;97.90;;;;;;5033501;28;20042;-59
2022/04/19 00:53:23;;;;;;;4.90;1.75;;;11.00;98.20;;;;;;5032712;28;20053;-59
2022/04/19 00:55:57;;;;;;;12.52;2.42;;;11.00;98.00;;;;;;5033709;28;20045;-59
2022/04/19 00:58:24;;;;;;;4.68;2.03;;;11.00;98.30;;;;;;5033860;28;20091;-59
2022/04/19 01:00:51;;;;;;;5.45;1.90;;;10.90;98.60;;;;;;5034276;28;20045;-58
2022/04/19 01:03:18;;;;;;;5.85;1.75;;;10.90;98.50;;;;;;5033212;28;20112;-57
2022/04/19 01:05:48;;;;;;;5.00;2.20;;;10.80;98.80;;;;;;5033938;28;20057;-58
2022/04/19 01:08:14;;;;;;;6.00;2.75;;;10.80;98.60;;;;;;5032158;28;20084;-59
2022/04/19 01:10:42;;;;;;;6.80;2.58;;;10.80;98.80;;;;;;5034227;28;20081;-59
2022/04/19 01:13:18;;;;;;;11.32;2.35;;;10.80;98.80;;;;;;5032465;28;20052;-59
2022/04/19 01:15:49;;;;;;;6.00;1.90;;;10.70;99.00;;;;;;5014467;28;20046;-59
2022/04/19 01:18:24;;;;;;;4.90;1.85;;;10.70;99.40;;;;;;5028475;28;20046;-59
2022/04/19 01:20:50;;;;;;;5.13;1.70;;;10.60;99.20;;;;;;5034023;28;20140;-58
2022/04/19 01:23:20;;;;;;;10.07;2.90;;;10.60;99.60;;;;;;5033110;28;20045;-58
2022/04/19 01:25:47;;;;;;;10.27;2.05;;;10.50;99.90;;;;;;5033554;28;20132;-59
2022/04/19 01:28:14;;;;;;;9.95;2.13;;;10.50;99.90;;;;;;5033591;28;20080;-59
2022/04/19 01:30:43;;;;;;;7.97;2.40;;;10.40;99.90;;;;;;5034089;28;20594;-59
2022/04/19 01:33:10;;;;;;;12.02;3.15;;;10.40;99.90;;;;;;5031663;28;20064;-59
2022/04/19 01:35:38;;;;;;;6.85;2.45;;;10.40;99.80;;;;;;5027459;28;20045;-58
2022/04/19 01:38:05;;;;;;;7.22;3.95;;;10.40;99.90;;;;;;5021635;28;20076;-59
2022/04/19 01:40:31;;;;;;;7.82;2.50;;;10.40;99.90;;;;;;5033425;28;20095;-57
2022/04/19 01:43:01;;;;;;;7.53;1.75;;;10.50;99.70;;;;;;5031575;28;20132;-56
2022/04/19 01:45:32;;;;;;;6.40;2.10;;;10.40;99.90;;;;;;5032962;28;20050;-53
2022/04/19 01:47:59;;;;;;;3.75;2.00;;;10.40;99.90;;;;;;5033039;28;20449;-57
2022/04/19 01:50:27;;;;;;;6.30;2.40;;;10.40;99.90;;;;;;5032662;28;20045;-57
2022/04/19 01:52:56;;;;;;;6.80;2.10;;;10.40;99.90;;;;;;5030884;28;20445;-56
2022/04/19 01:55:23;;;;;;;6.43;2.60;;;10.40;99.90;;;;;;5032440;28;20114;-56
2022/04/19 01:57:53;;;;;;;12.80;2.67;;;10.30;99.90;;;;;;5031653;28;20057;-58
2022/04/19 02:00:20;;;;;;;7.10;2.67;;;10.30;99.90;;;;;;5032985;28;20069;-57
2022/04/19 02:02:47;;;;;;;9.35;2.25;;;10.30;99.90;;;;;;5032344;28;20041;-57
2022/04/19 02:05:14;;;;;;;7.75;2.22;;;10.20;99.90;;;;;;5032796;28;20705;-58
2022/04/19 02:07:42;;;;;;;14.25;2.70;;;10.20;99.90;;;;;;5031475;28;20080;-58
2022/04/19 02:10:10;;;;;;;5.05;2.13;;;10.20;99.90;;;;;;5029843;28;20049;-57
2022/04/19 02:12:38;;;;;;;7.03;2.50;;;10.20;99.90;;;;;;5012042;28;20085;-60
2022/04/19 02:15:06;;;;;;;6.05;2.03;;;10.20;99.90;;;;;;5010142;28;20053;-58
2022/04/19 02:17:33;;;;;;;7.65;2.60;;;10.20;99.90;;;;;;5031407;28;20141;-58
2022/04/19 02:20:05;;;;;;;8.43;2.33;;;10.20;99.90;;;;;;5032463;28;20069;-57
2022/04/19 02:22:34;;;;;;;4.45;1.92;;;10.20;99.90;;;;;;5032706;28;20132;-58
2022/04/19 02:25:01;;;;;;;8.15;2.15;;;10.20;99.90;;;;;;5030632;28;20463;-58
2022/04/19 02:27:31;;;;;;;6.60;2.10;;;10.30;99.90;;;;;;5029207;28;20073;-58
2022/04/19 02:29:59;;;;;;;6.40;2.35;;;10.30;99.90;;;;;;5031319;28;20071;-58
2022/04/19 02:32:26;;;;;;;6.82;2.05;;;10.20;99.90;;;;;;5014291;28;20061;-58
2022/04/19 02:34:54;;;;;;;5.60;2.20;;;10.20;99.90;;;;;;5027047;28;20053;-59
2022/04/19 02:37:21;;;;;;;6.68;2.08;;;10.20;99.90;;;;;;5032505;28;20500;-57
2022/04/19 02:39:48;;;;;;;6.07;2.22;;;10.10;99.90;;;;;;5032871;28;20045;-58
2022/04/19 02:42:15;;;;;;;6.22;2.22;;;10.10;99.90;;;;;;5032910;28;20465;-58
2022/04/19 02:44:41;;;;;;;10.13;3.30;;;10.10;99.90;;;;;;5032444;28;20091;-58
2022/04/19 02:47:08;;;;;;;5.40;2.25;;;10.10;99.90;;;;;;5031838;28;20050;-59
2022/04/19 02:49:36;;;;;;;5.45;2.20;;;10.10;99.90;;;;;;5031498;28;20049;-57
2022/04/19 02:52:04;;;;;;;5.13;1.88;;;10.00;99.90;;;;;;5030282;28;20049;-57
2022/04/19 02:54:31;;;;;;;13.15;2.65;;;9.90;99.90;;;;;;5030588;28;20416;-58
2022/04/19 02:56:58;;;;;;;4.18;2.10;;;9.90;99.90;;;;;;5030746;28;20582;-58
2022/04/19 02:59:24;;;;;;;10.18;2.38;;;9.90;99.90;;;;;;5030424;28;20067;-58
2022/04/19 03:01:51;;;;;;;3.60;1.80;;;9.90;99.90;;;;;;5030919;28;20054;-58
2022/04/19 03:04:20;;;;;;;6.93;2.35;;;9.80;99.90;;;;;;5028516;28;20084;-57
2022/04/19 03:06:50;;;;;;;5.90;2.17;;;9.80;99.90;;;;;;5031447;28;20049;-58
2022/04/19 03:09:17;;;;;;;9.32;2.63;;;9.70;99.90;;;;;;5032303;28;20514;-59
2022/04/19 03:11:43;;;;;;;6.22;2.22;;;9.60;99.90;;;;;;5031713;28;20499;-59
2022/04/19 03:14:11;;;;;;;4.30;2.10;;;9.50;99.90;;;;;;5031517;28;20130;-58
2022/04/19 03:16:37;;;;;;;11.85;2.75;;;9.50;99.90;;;;;;5030728;28;20075;-58
2022/04/19 03:19:04;;;;;;;6.72;2.10;;;9.40;99.90;;;;;;5031834;28;20049;-59
2022/04/19 03:21:31;;;;;;;13.82;2.35;;;9.30;99.90;;;;;;5031343;28;20084;-58
2022/04/19 03:29:29;;;;;;;6.18;2.25;;;9.30;99.90;;;;;;5031888;28;20049;-58
2022/04/19 03:31:55;;;;;;;6.13;1.67;;;9.30;99.90;;;;;;5031597;28;20081;-54
2022/04/19 03:34:22;;;;;;;13.48;4.15;;;9.20;99.90;;;;;;5030164;28;20085;-57
2022/04/19 03:36:49;;;;;;;11.50;2.45;;;9.10;99.90;;;;;;5027149;28;20045;-57
2022/04/19 03:39:16;;;;;;;6.30;2.10;;;9.10;99.90;;;;;;5027684;28;20092;-58
2022/04/19 03:41:42;;;;;;;4.32;1.83;;;9.10;99.90;;;;;;5028869;28;20516;-56
2022/04/19 03:44:11;;;;;;;3.22;1.90;;;9.10;99.90;;;;;;5011802;28;20041;-57
2022/04/19 03:49:26;;;;;;;5.45;2.15;;;9.00;99.90;;;;;;5029673;28;20053;-57
2022/04/19 03:51:53;;;;;;;7.30;2.55;;;9.00;99.90;;;;;;5029132;28;20057;-58
2022/04/19 03:54:19;;;;;;;5.45;2.33;;;8.90;99.90;;;;;;5027540;28;20110;-57
2022/04/19 03:56:46;;;;;;;5.90;1.98;;;8.90;99.90;;;;;;5028263;28;20057;-58
2022/04/19 03:59:13;;;;;;;8.07;2.25;;;8.90;99.90;;;;;;5027495;28;20041;-58
2022/04/19 04:01:40;;;;;;;3.78;2.05;;;8.80;99.90;;;;;;5027393;28;20843;-59
2022/04/19 04:04:07;;;;;;;6.25;2.05;;;8.80;99.90;;;;;;5024386;28;20049;-60
2022/04/19 04:06:35;;;;;;;8.20;2.08;;;8.80;99.90;;;;;;5029569;28;20072;-59
2022/04/19 04:09:03;;;;;;;5.75;2.17;;;8.80;99.90;;;;;;5029991;28;20045;-58
2022/04/19 04:11:29;;;;;;;4.75;2.10;;;8.70;99.90;;;;;;5028407;28;20064;-59
2022/04/19 04:13:56;;;;;;;4.43;2.20;;;8.70;99.90;;;;;;5029749;28;20045;-58
2022/04/19 04:16:23;;;;;;;9.73;2.45;;;8.70;99.90;;;;;;5030173;28;20159;-57
2022/04/19 04:18:50;;;;;;;8.90;2.45;;;8.60;99.90;;;;;;5030179;28;20080;-57
2022/04/19 04:21:18;;;;;;;11.82;3.40;;;8.70;99.90;;;;;;5030629;28;20087;-58
2022/04/19 04:23:45;;;;;;;8.68;2.50;;;8.70;99.90;;;;;;5012322;28;20088;-58
2022/04/19 04:26:12;;;;;;;9.18;2.50;;;8.70;99.90;;;;;;5029487;28;20045;-57
2022/04/19 04:28:39;;;;;;;9.35;2.30;;;8.70;99.90;;;;;;5028570;28;20520;-56
2022/04/19 04:31:06;;;;;;;6.38;1.73;;;8.70;99.90;;;;;;5030018;28;20485;-63
2022/04/19 04:33:33;;;;;;;7.18;2.35;;;8.70;99.90;;;;;;5028337;28;20046;-55
2022/04/19 04:35:59;;;;;;;5.60;2.28;;;8.60;99.90;;;;;;5023995;28;20089;-58
2022/04/19 04:38:26;;;;;;;7.10;2.22;;;8.70;99.90;;;;;;5030150;28;20045;-59
2022/04/19 04:40:53;;;;;;;8.63;2.10;;;8.70;99.90;;;;;;5030281;28;20535;-58
2022/04/19 04:43:20;;;;;;;5.00;2.13;;;8.60;99.90;;;;;;5029139;28;20092;-57
2022/04/19 04:49:35;;;;;;;8.85;2.33;;;8.60;99.90;;;;;;5033551;28;20077;-58
2022/04/19 04:51:19;;;;;;;5.05;1.90;;;8.60;99.90;;;;;;5034199;28;20057;-57
2022/04/19 04:53:45;;;;;;;4.85;1.73;;;8.60;99.90;;;;;;5034174;28;20458;-58
2022/04/19 04:56:12;;;;;;;6.35;2.55;;;8.60;99.90;;;;;;5013868;28;20077;-57
2022/04/19 04:58:39;;;;;;;4.07;1.92;;;8.50;99.90;;;;;;5032936;28;20050;-60
2022/04/19 05:01:06;;;;;;;6.80;2.08;;;8.60;99.90;;;;;;5032595;28;20092;-56
2022/04/19 05:03:33;;;;;;;5.50;2.33;;;8.60;99.90;;;;;;5015428;28;20048;-55
2022/04/19 05:06:00;;;;;;;5.35;1.88;;;8.60;99.90;;;;;;5029177;28;20085;-57
2022/04/19 05:08:27;;;;;;;6.93;2.08;;;8.60;99.90;;;;;;5032263;28;20046;-57
2022/04/19 05:10:54;;;;;;;6.82;1.85;;;8.60;99.90;;;;;;5034947;28;20073;-59
2022/04/19 05:13:20;;;;;;;5.07;2.03;;;8.60;99.90;;;;;;5036345;28;20099;-59
2022/04/19 05:15:47;;;;;;;9.05;2.45;;;8.60;99.90;;;;;;5034937;28;20448;-57
2022/04/19 05:18:14;;;;;;;6.13;3.03;;;8.50;99.90;;;;;;5034124;28;20084;-59
2022/04/19 05:20:42;;;;;;;4.40;2.05;;;8.50;99.90;;;;;;5034061;28;20049;-59
2022/04/19 05:23:09;;;;;;;7.15;2.00;;;8.60;99.90;;;;;;5034301;28;20050;-58
2022/04/19 05:25:35;;;;;;;4.75;1.88;;;8.60;99.90;;;;;;5033708;28;20076;-59
2022/04/19 05:28:02;;;;;;;5.03;2.85;;;8.60;99.90;;;;;;5033766;28;20152;-58
2022/04/19 05:30:29;;;;;;;9.95;2.28;;;8.50;99.90;;;;;;5015639;28;20088;-57
2022/04/19 05:32:56;;;;;;;4.78;2.15;;;8.50;99.90;;;;;;5030710;28;20045;-57
2022/04/19 05:35:23;;;;;;;6.80;3.20;;;8.60;99.90;;;;;;5032897;28;20049;-59
2022/04/19 05:37:50;;;;;;;7.63;2.78;;;8.60;99.90;;;;;;5025189;28;20069;-60
2022/04/19 05:40:17;;;;;;;7.85;2.97;;;8.60;99.90;;;;;;5032423;28;20492;-57
2022/04/19 05:42:43;;;;;;;7.15;2.42;;;8.70;99.90;;;;;;5033642;28;20540;-56
2022/04/19 05:45:10;;;;;;;10.38;3.00;;;8.70;99.90;;;;;;5031307;28;20497;-56
2022/04/19 05:47:37;;;;;;;8.45;2.58;;;8.70;99.90;;;;;;5030520;28;20045;-60
2022/04/19 05:50:05;;;;;;;3.58;1.83;;;8.70;99.90;;;;;;5027713;28;20060;-59
2022/04/19 05:52:32;;;;;;;11.10;3.38;;;8.80;99.90;;;;;;5032259;28;20582;-57
2022/04/19 05:54:59;;;;;;;8.90;2.55;;;8.70;99.90;;;;;;5013753;28;20056;-57
2022/04/19 05:57:26;;;;;;;10.43;2.42;;;8.80;99.90;;;;;;5025003;28;20105;-58
2022/04/19 05:59:53;;;;;;;6.45;2.20;;;8.70;99.90;;;;;;5032845;28;20049;-59
2022/04/19 06:05:05;;;;;;;12.48;2.97;;;8.80;99.90;;;;;;5030657;28;20076;-59
2022/04/19 06:07:32;;;;;;;5.82;3.00;;;8.80;99.90;;;;;;5031865;28;20050;-59
2022/04/19 06:09:59;;;;;;;9.98;2.58;;;8.90;99.90;;;;;;5033122;28;20092;-57
2022/04/19 06:12:26;;;;;;;7.65;3.13;;;8.90;99.90;;;;;;5032693;28;20045;-58
2022/04/19 06:14:53;;;;;;;14.77;4.38;;;8.90;99.90;;;;;;5028272;28;20074;-57
2022/04/19 06:17:21;;;;;;;12.20;3.35;;;8.90;99.90;;;;;;5018560;28;20054;-58
2022/04/19 06:19:48;;;;;;;8.25;2.75;;;8.90;99.90;;;;;;5023278;28;20737;-57
2022/04/19 06:22:14;;;;;;;8.35;3.10;;;9.00;99.90;;;;;;5031749;28;20080;-58
2022/04/19 06:24:41;;;;;;;5.65;2.67;;;9.10;99.90;;;;;;5028658;28;20077;-58
2022/04/19 06:27:08;;;;;;;6.82;2.83;;;9.00;99.90;;;;;;5030896;28;20115;-59
2022/04/19 06:29:35;;;;;;;10.15;2.85;;;8.90;99.90;;;;;;5031197;28;20148;-59
2022/04/19 06:32:02;;;;;;;11.55;2.95;;;8.90;99.90;;;;;;5024976;28;20468;-58
2022/04/19 06:34:29;;;;;;;10.48;2.83;;;8.90;99.90;;;;;;5031187;28;20049;-59
2022/04/19 06:36:55;;;;;;;9.15;3.15;;;8.90;99.90;;;;;;5025366;28;20132;-58
2022/04/19 06:39:23;;;;;;;10.00;3.30;;;9.00;99.90;;;;;;5031123;28;20069;-55
2022/04/19 06:41:51;;;;;;;13.98;3.05;;;9.00;99.90;;;;;;5029005;28;20527;-57
2022/04/19 06:44:18;;;;;;;5.95;2.50;;;9.20;99.90;;;;;;5026196;28;20100;-58
2022/04/19 06:46:47;;;;;;;12.10;3.10;;;9.20;99.90;;;;;;5029175;28;20396;-58
2022/04/19 06:49:14;;;;;;;9.13;3.17;;;9.20;99.90;;;;;;5030276;28;20081;-59
2022/04/19 06:51:41;;;;;;;10.05;3.33;;;9.20;99.90;;;;;;5029521;28;20041;-57
2022/04/19 06:54:09;;;;;;;12.52;3.63;;;9.20;99.90;;;;;;5027343;28;20041;-57
2022/04/19 06:56:36;;;;;;;20.27;3.63;;;9.20;99.90;;;;;;4996386;28;20059;-58
2022/04/19 06:59:03;;;;;;;13.90;3.28;;;9.30;99.90;;;;;;5029687;28;20140;-58
2022/04/19 07:01:42;;;;;;;9.18;3.15;;;9.50;99.90;;;;;;5028513;28;20065;-58
2022/04/19 07:04:10;;;;;;;8.38;3.55;;;9.60;99.90;;;;;;5029004;28;20041;-58
2022/04/19 07:06:37;;;;;;;10.60;4.75;;;9.60;99.90;;;;;;5022189;28;20077;-59
2022/04/19 07:09:04;;;;;;;5.22;3.10;;;9.60;99.90;;;;;;5029835;28;20119;-57
2022/04/19 07:11:30;;;;;;;8.75;3.08;;;9.60;99.90;;;;;;5029987;28;20512;-56
2022/04/19 07:13:57;;;;;;;12.85;2.97;;;9.70;99.90;;;;;;5023163;28;20071;-59
2022/04/19 07:16:24;;;;;;;6.30;2.67;;;9.70;99.90;;;;;;5028367;28;20068;-56
2022/04/19 07:18:52;;;;;;;9.52;3.03;;;9.80;99.90;;;;;;5030001;28;20132;-59
2022/04/19 07:27:10;;;;;;;9.75;3.53;;;10.20;99.90;;;;;;5031651;28;20077;-59
2022/04/19 07:29:36;;;;;;;10.82;3.63;;;10.30;99.90;;;;;;5030708;28;20107;-58
2022/04/19 07:32:04;;;;;;;13.13;4.32;;;10.50;99.90;;;;;;5030391;28;20045;-60
2022/04/19 07:34:31;;;;;;;13.75;3.67;;;10.50;99.90;;;;;;5030693;28;20081;-59
2022/04/19 07:36:57;;;;;;;8.60;4.15;;;10.70;99.90;;;;;;5024989;28;20875;-58
2022/04/19 07:39:24;;;;;;;9.32;3.20;;;10.70;99.90;;;;;;5029181;28;20559;-60
2022/04/19 07:41:51;;;;;;;8.02;4.15;;;10.70;99.90;;;;;;5030734;28;20228;-56
2022/04/19 07:44:18;;;;;;;12.07;4.20;;;10.80;99.90;;;;;;5029211;28;20069;-56
2022/04/19 07:46:45;;;;;;;9.55;3.83;;;10.90;99.90;;;;;;5029620;28;20488;-58
2022/04/19 07:49:12;;;;;;;11.48;4.13;;;11.10;99.90;;;;;;5030737;28;20057;-59
2022/04/19 07:51:39;;;;;;;14.05;4.70;;;11.10;99.90;;;;;;5030979;28;20136;-58
2022/04/19 07:54:06;;;;;;;7.47;3.90;;;11.20;99.90;;;;;;5031290;28;20087;-58
2022/04/19 07:56:34;;;;;;;17.73;4.55;;;11.30;99.90;;;;;;5026011;28;20057;-60
2022/04/19 07:59:01;;;;;;;11.32;4.63;;;11.40;99.90;;;;;;5027495;28;20041;-58
2022/04/19 08:01:31;;;;;;;12.70;5.47;;;11.50;99.90;;;;;;5030174;28;20398;-59
2022/04/19 08:03:58;;;;;;;12.65;5.05;;;11.60;99.90;;;;;;5029098;28;20049;-58
2022/04/19 08:06:25;;;;;;;12.82;5.20;;;11.70;99.90;;;;;;5027923;28;20104;-59
2022/04/19 08:08:52;;;;;;;10.43;4.90;;;11.70;99.90;;;;;;5011476;28;20049;-57
2022/04/19 08:11:18;;;;;;;16.40;5.13;;;11.70;99.90;;;;;;5030316;28;20118;-59
2022/04/19 08:13:45;;;;;;;9.77;4.90;;;11.70;99.90;;;;;;5029507;28;20050;-59
2022/04/19 08:16:12;;;;;;;9.95;4.35;;;11.80;99.90;;;;;;5030641;28;20081;-59
2022/04/19 08:18:40;;;;;;;12.07;4.70;;;11.90;99.90;;;;;;5030715;28;20058;-59
2022/04/19 08:21:07;;;;;;;19.05;6.13;;;12.00;99.90;;;;;;5030485;28;20091;-60
2022/04/19 08:23:34;;;;;;;11.55;4.80;;;12.10;99.90;;;;;;5030619;28;20041;-58
2022/04/19 08:26:01;;;;;;;16.80;4.63;;;12.20;99.90;;;;;;5012663;28;20132;-58
2022/04/19 08:28:27;;;;;;;16.13;4.90;;;12.20;99.90;;;;;;5030263;28;20089;-61
2022/04/19 08:30:54;;;;;;;13.80;5.50;;;12.30;99.90;;;;;;5030282;28;20493;-57
2022/04/19 08:33:21;;;;;;;14.55;6.32;;;12.30;99.90;;;;;;5013003;28;20483;-59
2022/04/19 08:35:48;;;;;;;8.38;5.47;;;12.40;99.90;;;;;;5028467;28;20085;-58
2022/04/19 08:38:15;;;;;;;18.88;6.07;;;12.50;99.90;;;;;;5030509;28;20077;-59
2022/04/19 08:40:41;;;;;;;19.58;6.97;;;12.70;99.90;;;;;;5029287;28;20061;-59
2022/04/19 08:43:11;;;;;;;14.40;6.03;;;12.80;99.90;;;;;;5030138;28;20107;-59
2022/04/19 08:45:38;;;;;;;13.35;5.97;;;12.90;99.90;;;;;;5029511;28;20083;-58
2022/04/19 08:48:07;;;;;;;21.75;6.15;;;12.90;99.90;;;;;;5033080;28;20107;-59
2022/04/19 08:50:34;;;;;;;15.20;6.32;;;13.00;99.90;;;;;;5032827;28;20103;-59
2022/04/19 08:58:39;;;;;;;10.10;6.07;;;13.20;99.80;;;;;;5025243;28;20064;-58
2022/04/19 09:01:06;;;;;;;16.00;5.03;;;13.30;99.50;;;;;;5034058;28;20469;-57
2022/04/19 09:03:33;;;;;;;8.98;5.95;;;13.30;99.50;;;;;;5034023;28;20053;-57
2022/04/19 09:06:00;;;;;;;14.27;6.72;;;13.30;99.40;;;;;;5032492;28;20049;-59
2022/04/19 09:08:28;;;;;;;16.10;6.55;;;13.40;99.40;;;;;;5032941;28;20067;-59
2022/04/19 09:11:08;;;;;;;15.77;6.57;;;13.40;99.40;;;;;;5034473;28;20107;-59
2022/04/19 09:13:35;;;;;;;19.52;7.18;;;13.50;98.80;;;;;;5034409;28;20041;-58
2022/04/19 09:16:04;;;;;;;24.27;7.40;;;13.50;99.30;;;;;;5030644;28;20049;-60
2022/04/19 09:18:32;;;;;;;18.08;7.35;;;13.60;99.30;;;;;;5034304;28;20208;-58
2022/04/19 09:21:00;;;;;;;22.27;9.25;;;13.70;99.00;;;;;;5016953;28;20072;-59
2022/04/19 09:23:29;;;;;;;19.27;7.82;;;13.80;98.90;;;;;;5034148;28;20048;-59
2022/04/19 09:25:57;;;;;;;16.05;7.68;;;13.80;98.70;;;;;;5034287;28;20481;-59
2022/04/19 09:28:25;;;;;;;20.48;8.45;;;13.90;98.90;;;;;;5016423;28;20487;-60
2022/04/19 09:30:59;;;;;;;14.85;7.05;;;14.00;98.50;;;;;;5014551;28;20057;-58
2022/04/19 09:33:26;;;;;;;17.88;8.52;;;14.00;98.40;;;;;;5018146;28;20085;-56
2022/04/19 09:36:04;;;;;;;16.55;8.40;;;14.10;98.30;;;;;;5027131;28;20053;-59
2022/04/19 09:38:49;;;;;;;20.77;8.23;;;14.10;98.40;;;;;;5032286;28;20053;-60
2022/04/19 09:41:31;;;;;;;13.43;8.20;;;14.30;98.30;;;;;;5023012;28;20057;-60
2022/04/19 09:44:08;;;;;;;15.48;7.45;;;14.20;97.80;;;;;;5031900;28;20081;-59
2022/04/19 09:46:36;;;;;;;15.85;7.90;;;14.20;98.40;;;;;;5032474;28;20060;-59
2022/04/19 09:49:04;;;;;;;17.63;7.07;;;14.30;98.30;;;;;;5033567;28;20467;-58
2022/04/19 09:51:31;;;;;;;13.02;7.00;;;14.30;98.00;;;;;;5033544;28;20057;-58
2022/04/19 09:53:58;;;;;;;14.75;7.68;;;14.50;98.00;;;;;;5018193;28;20484;-58
2022/04/19 09:56:33;;;;;;;16.58;7.65;;;14.60;97.60;;;;;;5030491;28;20049;-59
2022/04/19 09:59:12;;;;;;;11.50;7.47;;;14.60;97.50;;;;;;5032104;28;20406;-59
2022/04/19 10:09:55;;;;;;;17.23;9.48;;;14.60;97.40;;;;;;5031508;28;20073;-60
2022/04/19 10:12:23;;;;;;;17.60;8.52;;;14.60;97.80;;;;;;5031980;28;20076;-58
2022/04/19 10:14:50;;;;;;;18.02;8.23;;;14.70;97.40;;;;;;5032887;28;20463;-59
2022/04/19 10:17:16;;;;;;;21.33;8.95;;;14.70;97.10;;;;;;5033281;28;20076;-59
2022/04/19 10:19:43;;;;;;;20.83;8.25;;;14.80;97.20;;;;;;5031623;28;20057;-59
2022/04/19 10:22:11;;;;;;;19.63;7.90;;;14.80;96.90;;;;;;5031836;28;20144;-59
2022/04/19 10:24:44;;;;;;;19.98;8.05;;;14.90;96.70;;;;;;5032893;28;20420;-59
2022/04/19 10:27:11;;;;;;;22.27;7.50;;;15.00;96.60;;;;;;5031500;28;20049;-59
2022/04/19 10:29:38;;;;;;;20.52;7.88;;;15.10;96.20;;;;;;5014816;28;20045;-59
2022/04/19 10:32:07;;;;;;;18.67;7.43;;;15.10;96.20;;;;;;5032300;28;20049;-60
2022/04/19 10:34:39;;;;;;;25.98;8.32;;;15.10;96.20;;;;;;5030249;28;20121;-59
2022/04/19 10:37:13;;;;;;;22.73;8.45;;;15.10;96.10;;;;;;5031366;28;20507;-59
2022/04/19 10:40:03;;;;;;;15.90;7.80;;;15.10;95.40;;;;;;5031335;28;20119;-60
2022/04/19 10:42:38;;;;;;;15.70;8.00;;;15.10;95.60;;;;;;5025536;28;20041;-60
2022/04/19 10:45:14;;;;;;;21.60;8.75;;;15.10;95.80;;;;;;5022708;28;20077;-60
2022/04/19 10:47:56;;;;;;;20.45;8.75;;;15.20;95.70;;;;;;5027444;28;20091;-59
2022/04/19 10:50:29;;;;;;;12.45;6.85;;;15.30;95.40;;;;;;5028386;28;20081;-59
2022/04/19 10:52:59;;;;;;;18.95;8.40;;;15.30;95.60;;;;;;5031185;28;20069;-59
2022/04/19 10:55:27;;;;;;;15.32;7.32;;;15.40;95.80;;;;;;5019877;28;20065;-59
2022/04/19 10:58:17;;;;;;;19.02;7.40;;;15.50;95.20;;;;;;5030255;28;20413;-60
2022/04/19 11:00:48;;;;;;;15.57;7.45;;;15.40;95.00;;;;;;5022830;28;20483;-59
2022/04/19 11:03:33;;;;;;;18.13;7.22;;;15.40;95.00;;;;;;5027181;28;20658;-59
2022/04/19 11:06:02;;;;;;;20.67;7.18;;;15.50;95.60;;;;;;5012069;28;20075;-58
2022/04/19 11:08:29;;;;;;;20.42;7.65;;;15.50;95.40;;;;;;5046643;28;20440;-59
2022/04/19 11:10:56;;;;;;;19.42;10.40;;;15.50;95.40;;;;;;5031158;28;20046;-58
2022/04/19 11:13:27;;;;;;;18.48;10.43;;;15.60;95.30;;;;;;5031166;28;20042;-60
2022/04/19 11:16:07;;;;;;;18.25;8.15;;;15.70;95.40;;;;;;5015985;28;20133;-59
2022/04/19 11:18:39;;;;;;;16.52;7.93;;;15.80;94.70;;;;;;5030087;28;20132;-59
2022/04/19 11:21:45;;;;;;;24.10;8.45;;;15.80;95.40;;;;;;5031304;28;20454;-60
2022/04/19 11:24:52;;;;;;;18.20;7.85;;;15.90;94.80;;;;;;5028633;28;20057;-59
2022/04/19 11:27:20;;;;;;;16.98;7.35;;;15.90;94.90;;;;;;5030568;28;20148;-60
2022/04/19 11:29:47;;;;;;;24.35;7.53;;;16.00;95.50;;;;;;5008526;28;20049;-59
2022/04/19 11:32:23;;;;;;;18.02;7.68;;;16.00;95.50;;;;;;5030046;28;20049;-60
2022/04/19 11:35:04;;;;;;;14.32;7.63;;;16.10;95.40;;;;;;5029962;28;20045;-59
2022/04/19 11:37:31;;;;;;;23.90;8.45;;;16.10;95.40;;;;;;5017444;28;20076;-59
2022/04/19 11:48:30;;;;;;;23.30;9.30;;;16.50;95.20;;;;;;5031242;28;20050;-58
2022/04/19 11:51:07;;;;;;;21.08;8.10;;;16.60;95.50;;;;;;5031154;28;20119;-59
2022/04/19 11:53:35;;;;;;;19.20;7.88;;;16.60;95.20;;;;;;5031177;28;20120;-59
2022/04/19 11:56:03;;;;;;;13.93;8.00;;;16.70;95.30;;;;;;5031350;28;20056;-61
2022/04/19 11:58:31;;;;;;;29.45;9.00;;;16.80;95.60;;;;;;5031473;28;20073;-60
2022/04/19 12:01:03;;;;;;;16.65;8.82;;;16.70;95.00;;;;;;5013776;28;20087;-60
2022/04/19 12:03:39;;;;;;;15.93;7.97;;;16.80;95.10;;;;;;5031421;28;20045;-60
2022/04/19 12:06:10;;;;;;;15.85;8.07;;;16.80;95.20;;;;;;5025564;28;20054;-59
2022/04/19 12:08:45;;;;;;;10.30;7.03;;;16.90;94.90;;;;;;5015449;28;20497;-59
2022/04/19 12:11:14;;;;;;;17.88;7.15;;;16.90;94.80;;;;;;5030066;28;20056;-59
2022/04/19 12:13:46;;;;;;;14.10;6.93;;;16.90;95.00;;;;;;5029489;28;20088;-60
2022/04/19 12:16:34;;;;;;;25.05;10.20;;;16.90;94.90;;;;;;5030850;28;20059;-59
2022/04/19 12:19:02;;;;;;;14.50;6.75;;;16.90;94.20;;;;;;5030301;28;20045;-59
2022/04/19 12:21:56;;;;;;;18.33;6.75;;;16.90;94.40;;;;;;5034095;28;20069;-59
2022/04/19 12:24:24;;;;;;;;;;;17.10;93.30;;;;;;5033940;28;20467;-59
2022/04/19 12:27:11;;;;;;;20.88;6.25;;;17.20;93.50;;;;;;5035207;28;19932;-59
2022/04/19 12:29:58;;;;;;;15.95;6.68;;;17.30;92.80;;;;;;5035201;28;20103;-59
2022/04/19 12:32:25;;;;;;;16.38;6.22;;;17.30;93.00;;;;;;5035023;28;20080;-59
2022/04/19 12:35:05;;;;;;;17.58;6.50;;;17.20;94.00;;;;;;5034716;28;20058;-59
2022/04/19 12:37:32;;;;;;;10.48;4.80;;;17.20;92.80;;;;;;5016998;28;20087;-60
2022/04/19 12:40:02;;;;;;;15.38;4.75;;;17.30;93.60;;;;;;5034626;28;20046;-60
2022/04/19 12:42:29;;;;;;;7.97;3.42;;;17.30;92.30;;;;;;5033433;28;20045;-60
2022/04/19 12:45:07;;;;;;;8.73;3.72;;;17.40;92.20;;;;;;5022385;28;20076;-60
2022/04/19 12:47:33;;;;;;;11.50;4.13;;;17.30;89.50;;;;;;4674514;28;9999756;-60
2022/04/19 12:50:11;;;;;;;10.75;4.68;;;17.20;92.00;;;;;;5030532;28;20090;-59
2022/04/19 12:52:38;;;;;;;12.23;4.05;;;17.40;90.90;;;;;;5010926;28;20054;-60
2022/04/19 12:55:05;;;;;;;7.22;3.97;;;17.50;92.30;;;;;;5015176;28;20826;-59
2022/04/19 12:57:35;;;;;;;11.27;4.30;;;17.70;92.30;;;;;;5030017;28;20045;-59
2022/04/19 13:00:02;;;;;;;7.43;3.75;;;17.90;92.20;;;;;;5029944;28;20052;-59
2022/04/19 13:02:29;;;;;;;7.40;3.00;;;18.00;91.90;;;;;;5027879;28;20444;-59
2022/04/19 13:04:56;;;;;;;8.85;3.60;;;18.20;90.30;;;;;;5031592;28;20056;-60
2022/04/19 13:13:05;;;;;;;10.57;3.53;;;18.10;85.40;;;;;;5030845;28;20412;-60
2022/04/19 13:15:32;;;;;;;6.63;2.60;;;18.10;88.90;;;;;;5029952;28;20410;-60
2022/04/19 13:17:59;;;;;;;7.60;3.45;;;18.10;86.80;;;;;;5030515;28;20492;-59
2022/04/19 13:20:26;;;;;;;4.55;2.90;;;18.00;89.30;;;;;;5034278;28;20075;-59
2022/04/19 13:22:53;;;;;;;6.70;3.05;;;17.90;88.20;;;;;;5030190;28;20096;-60
2022/04/19 13:25:20;;;;;;;7.65;3.90;;;17.90;89.10;;;;;;5016993;28;20167;-60
2022/04/19 13:27:50;;;;;;;8.80;4.22;;;17.90;87.60;;;;;;5032373;28;20045;-59
2022/04/19 13:30:19;;;;;;;12.07;4.18;;;18.00;89.80;;;;;;5033080;28;20045;-58
2022/04/19 13:32:47;;;;;;;12.77;3.05;;;18.10;89.20;;;;;;5033776;28;20057;-59
2022/04/19 13:35:13;;;;;;;8.07;4.50;;;18.20;90.00;;;;;;5032038;28;20072;-59
2022/04/19 13:40:26;;;;;;;9.45;3.75;;;18.50;86.50;;;;;;5034059;28;20520;-59
2022/04/19 13:42:53;;;;;;;9.43;4.15;;;18.50;88.10;;;;;;5033518;28;20053;-59
2022/04/19 13:45:20;;;;;;;13.93;4.93;;;18.70;88.50;;;;;;5032573;28;20240;-58